Bookmark and Share
Track history (hours):
 

Capetan Vassilis

Last reported at 2014-Apr-05 19:33 UTC. Time now 2014-Apr-24 01:56 UTC.
Position N 41°21' E 029°14'.
Warning: this ship's position is 18 days out of date.

Length 191 m; draft 6.5 m.

MMSI: 311552000.

NotesDate/timePositionNaut miles runAvg speedWind from/ knotsBaromVisibWave heightAir tempDewpointWater temp
2014-Apr-05 19:33N 41°21' E 029°14'  
2014-Mar-31 02:05N 40°29' E 026°55'18310.4
2014-Mar-30 08:33N 37°32' E 025°55'1211.6
2014-Mar-30 07:33N 37°22' E 026°00'1211.8
2014-Mar-30 06:33N 37°11' E 026°06'1111.5
2014-Mar-30 05:33N 37°00' E 026°11'1611.2
2014-Mar-30 04:06N 36°48' E 026°25'811.4
2014-Mar-30 03:22N 36°42' E 026°32'24711.8
2014-Mar-29 06:25N 33°40' E 029°55'1312.7
2014-Mar-29 05:25N 33°30' E 030°05'3913.4
2014-Mar-29 02:29N 33°01' E 030°37'1314.2
2014-Mar-29 01:33N 32°51' E 030°47'1413.9
2014-Mar-29 00:33N 32°41' E 030°58'1413.8
2014-Mar-28 23:31N 32°30' E 031°09'1313.8
2014-Mar-28 22:33N 32°21' E 031°20'1413.8
2014-Mar-28 21:32N 32°10' E 031°31'1313.5
2014-Mar-28 20:33N 32°00' E 031°42'1413.8
2014-Mar-28 19:33N 31°50' E 031°52'1713.6
2014-Mar-28 18:20N 31°38' E 032°06'1012.7
2014-Mar-28 17:33N 31°31' E 032°14'1212.5
2014-Mar-28 16:34N 31°21' E 032°23'19 9.7
2014-Mar-28 14:33N 31°02' E 032°19'  

Dump ship's entire track history

sailing weather and tide predictions

Capetan Vassilis — C6S2085 — position and weather